Time;durP1;ratioP1;P1;durP2;ratioP2;P2;SDS_P1;SDS_P2;PMS_P1;PMS_P2;Temp;Humidity;BMP_temperature;BMP_pressure;BME280_temperature;BME280_humidity;BME280_pressure;Samples;Min_cycle;Max_cycle;Signal;HPM_P1;HPM_P2
2021/12/20 00:00:46;;;;;;;;;;;;;;;;;;2201629;59;23214;-73
2021/12/20 00:03:19;;;;;;;;;;;;;;;;;;2202882;59;18421;-73
2021/12/20 00:05:53;;;;;;;;;;;;;;;;;;2205948;58;19335;-73
2021/12/20 00:08:27;;;;;;;;;;;;;;;;;;2203981;66;16266;-73
2021/12/20 00:11:00;;;;;;;;;;;;;;;;;;2202490;63;20939;-73
2021/12/20 00:13:34;;;;;;;;;;;;;;;;;;2205481;58;31801;-73
2021/12/20 00:16:10;;;;;;;;;;;;;;;;;;2203036;66;20430;-73
2021/12/20 00:18:44;;;;;;;;;;;;;;;;;;2202162;64;20237;-73
2021/12/20 00:21:17;;;;;;;;;;;;;;;;;;2203368;64;14048;-73
2021/12/20 00:23:50;;;;;;;;;;;;;;;;;;2202219;59;14854;-73
2021/12/20 00:26:23;;;;;;;;;;;;;;;;;;2202583;64;14027;-73
2021/12/20 00:28:56;;;;;;;;;;;;;;;;;;2201554;63;28809;-73
2021/12/20 00:31:32;;;;;;;;;;;;;;;;;;2203227;59;19406;-73
2021/12/20 00:34:05;;;;;;;;;;;;;;;;;;2202753;63;23146;-73
2021/12/20 00:36:38;;;;;;;;;;;;;;;;;;2202687;59;16378;-73
2021/12/20 00:42:00;;;;;;;;;;;;;;;;;;2202430;63;20366;-73
2021/12/20 00:44:33;;;;;;;;;;;;;;;;;;2202535;59;21921;-73
2021/12/20 00:47:09;;;;;;;;;;;;;;;;;;2201984;59;30180;-73
2021/12/20 00:49:43;;;;;;;;;;;;;;;;;;2202920;67;17923;-73
2021/12/20 00:52:16;;;;;;;;;;;;;;;;;;2202869;59;24755;-73
2021/12/20 00:54:49;;;;;;;;;;;;;;;;;;2201776;59;24073;-73
2021/12/20 00:57:22;;;;;;;;;;;;;;;;;;2206462;59;18203;-73
2021/12/20 00:59:55;;;;;;;;;;;;;;;;;;2202787;63;21534;-74
2021/12/20 01:02:31;;;;;;;;;;;;;;;;;;2201743;66;17867;-73
2021/12/20 01:05:05;;;;;;;;;;;;;;;;;;2200737;59;22668;-73
2021/12/20 01:07:38;;;;;;;;;;;;;;;;;;2203261;58;16823;-73
2021/12/20 01:10:11;;;;;;;;;;;;;;;;;;2202804;67;17330;-73
2021/12/20 01:12:47;;;;;;;;;;;;;;;;;;2202965;58;22361;-74
2021/12/20 01:15:22;;;;;;;;;;;;;;;;;;2204731;58;31117;-73
2021/12/20 01:17:58;;;;;;;;;;;;;;;;;;2202517;59;19362;-73
2021/12/20 01:20:32;;;;;;;;;;;;;;;;;;2202372;59;19606;-73
2021/12/20 01:23:05;;;;;;;;;;;;;;;;;;2205771;58;24374;-73
2021/12/20 01:25:38;;;;;;;;;;;;;;;;;;2202470;59;28469;-73
2021/12/20 01:28:11;;;;;;;;;;;;;;;;;;2202738;67;15164;-73
2021/12/20 01:30:45;;;;;;;;;;;;;;;;;;2202131;59;21996;-73
2021/12/20 01:33:21;;;;;;;;;;;;;;;;;;2202746;59;30382;-74
2021/12/20 01:35:55;;;;;;;;;;;;;;;;;;2202516;67;16072;-73
2021/12/20 01:38:28;;;;;;;;;;;;;;;;;;2201925;59;23510;-73
2021/12/20 01:41:01;;;;;;;;;;;;;;;;;;2201458;67;24013;-73
2021/12/20 01:43:34;;;;;;;;;;;;;;;;;;2202998;58;17279;-73
2021/12/20 01:46:07;;;;;;;;;;;;;;;;;;2202699;67;16382;-73
2021/12/20 01:48:45;;;;;;;;;;;;;;;;;;2201667;59;24081;-73
2021/12/20 01:51:33;;;;;;;;;;;;;;;;;;2203153;58;22116;-73
2021/12/20 01:54:06;;;;;;;;;;;;;;;;;;2203697;59;15867;-73
2021/12/20 01:56:42;;;;;;;;;;;;;;;;;;2202049;59;19727;-74
2021/12/20 01:59:15;;;;;;;;;;;;;;;;;;2203268;59;17733;-73
2021/12/20 02:01:48;;;;;;;;;;;;;;;;;;2201516;58;16650;-73
2021/12/20 02:04:24;;;;;;;;;;;;;;;;;;2201337;59;22917;-73
2021/12/20 02:06:57;;;;;;;;;;;;;;;;;;2202063;58;17085;-73
2021/12/20 02:09:30;;;;;;;;;;;;;;;;;;2202595;59;20099;-73
2021/12/20 02:12:04;;;;;;;;;;;;;;;;;;2204591;58;16492;-73
2021/12/20 02:14:37;;;;;;;;;;;;;;;;;;2205904;54;20211;-70
2021/12/20 02:17:10;;;;;;;;;;;;;;;;;;2207078;59;18042;-70
2021/12/20 02:19:46;;;;;;;;;;;;;;;;;;2208924;59;28242;-70
2021/12/20 02:22:22;;;;;;;;;;;;;;;;;;2208945;59;17272;-70
2021/12/20 02:24:55;;;;;;;;;;;;;;;;;;2208341;63;20116;-70
2021/12/20 02:27:29;;;;;;;;;;;;;;;;;;2210004;64;16302;-70
2021/12/20 02:30:09;;;;;;;;;;;;;;;;;;2209850;59;15245;-70
2021/12/20 02:38:45;;;;;;;;;;;;;;;;;;2207830;59;37375;-70
2021/12/20 02:41:19;;;;;;;;;;;;;;;;;;2212926;59;21993;-70
2021/12/20 02:43:55;;;;;;;;;;;;;;;;;;2212566;67;24729;-70
2021/12/20 02:46:45;;;;;;;;;;;;;;;;;;2213873;63;14267;-70
2021/12/20 02:49:19;;;;;;;;;;;;;;;;;;2213276;59;24103;-70
2021/12/20 02:51:53;;;;;;;;;;;;;;;;;;2214189;63;17948;-70
2021/12/20 02:54:29;;;;;;;;;;;;;;;;;;2213144;67;27618;-70
2021/12/20 02:57:02;;;;;;;;;;;;;;;;;;2212709;58;28024;-71
2021/12/20 02:59:36;;;;;;;;;;;;;;;;;;2214187;59;18496;-70
2021/12/20 03:02:11;;;;;;;;;;;;;;;;;;2213685;67;23051;-70
2021/12/20 03:04:45;;;;;;;;;;;;;;;;;;2211093;59;20410;-69
2021/12/20 03:07:23;;;;;;;;;;;;;;;;;;2215165;59;26982;-70
2021/12/20 03:10:02;;;;;;;;;;;;;;;;;;2213950;59;17010;-70
2021/12/20 03:12:35;;;;;;;;;;;;;;;;;;2213799;58;19498;-70
2021/12/20 03:15:11;;;;;;;;;;;;;;;;;;2213874;59;15858;-70
2021/12/20 03:17:44;;;;;;;;;;;;;;;;;;2212767;59;31547;-70
2021/12/20 03:20:18;;;;;;;;;;;;;;;;;;2213452;64;21496;-70
2021/12/20 03:22:51;;;;;;;;;;;;;;;;;;2212702;59;25094;-70
2021/12/20 03:25:27;;;;;;;;;;;;;;;;;;2212919;64;44150;-70
2021/12/20 03:28:00;;;;;;;;;;;;;;;;;;2214360;63;20694;-70
2021/12/20 03:30:33;;;;;;;;;;;;;;;;;;2214112;59;26604;-70
2021/12/20 03:33:07;;;;;;;;;;;;;;;;;;2212953;60;27177;-70
2021/12/20 03:35:40;;;;;;;;;;;;;;;;;;2213005;67;16024;-70
2021/12/20 03:38:13;;;;;;;;;;;;;;;;;;2214028;59;23471;-71
2021/12/20 03:40:49;;;;;;;;;;;;;;;;;;2212123;63;23679;-70
2021/12/20 03:43:24;;;;;;;;;;;;;;;;;;2213027;67;16926;-70
2021/12/20 03:45:57;;;;;;;;;;;;;;;;;;2214238;67;19608;-70
2021/12/20 03:48:30;;;;;;;;;;;;;;;;;;2212908;63;18295;-70
2021/12/20 03:51:05;;;;;;;;;;;;;;;;;;2212627;59;15979;-70
2021/12/20 03:53:38;;;;;;;;;;;;;;;;;;2213893;59;24417;-70
2021/12/20 03:56:14;;;;;;;;;;;;;;;;;;2213134;59;33637;-70
2021/12/20 03:58:47;;;;;;;;;;;;;;;;;;2213588;66;18005;-70
2021/12/20 04:01:20;;;;;;;;;;;;;;;;;;2214188;59;16491;-70
2021/12/20 04:03:57;;;;;;;;;;;;;;;;;;2213157;59;16479;-70
2021/12/20 04:06:33;;;;;;;;;;;;;;;;;;2213286;59;21930;-70
2021/12/20 04:09:07;;;;;;;;;;;;;;;;;;2213128;59;25063;-70
2021/12/20 04:11:43;;;;;;;;;;;;;;;;;;2213736;59;25651;-70
2021/12/20 04:14:16;;;;;;;;;;;;;;;;;;2213117;59;16022;-70
2021/12/20 04:16:49;;;;;;;;;;;;;;;;;;2210538;59;36595;-70
2021/12/20 04:19:23;;;;;;;;;;;;;;;;;;2214372;67;16916;-70
2021/12/20 04:21:56;;;;;;;;;;;;;;;;;;2213503;59;15626;-70
2021/12/20 04:24:29;;;;;;;;;;;;;;;;;;2213019;67;23762;-70
2021/12/20 04:27:05;;;;;;;;;;;;;;;;;;2212189;59;25886;-70
2021/12/20 04:29:38;;;;;;;;;;;;;;;;;;2214459;59;35616;-70
2021/12/20 04:32:11;;;;;;;;;;;;;;;;;;2212748;66;19688;-70
2021/12/20 04:34:45;;;;;;;;;;;;;;;;;;2212801;59;18271;-70
2021/12/20 04:37:18;;;;;;;;;;;;;;;;;;2214766;59;15062;-70
2021/12/20 04:39:51;;;;;;;;;;;;;;;;;;2213901;59;19923;-70
2021/12/20 04:42:27;;;;;;;;;;;;;;;;;;2212637;59;29438;-70
2021/12/20 04:45:01;;;;;;;;;;;;;;;;;;2213789;63;18768;-70
2021/12/20 04:47:34;;;;;;;;;;;;;;;;;;2213376;59;18092;-70
2021/12/20 04:50:07;;;;;;;;;;;;;;;;;;2214012;59;19753;-70
2021/12/20 04:52:41;;;;;;;;;;;;;;;;;;2212012;63;16279;-70
2021/12/20 04:55:15;;;;;;;;;;;;;;;;;;2213769;58;16701;-70
2021/12/20 04:57:50;;;;;;;;;;;;;;;;;;2213626;59;28479;-70
2021/12/20 05:00:25;;;;;;;;;;;;;;;;;;2212182;59;37704;-70
2021/12/20 05:02:58;;;;;;;;;;;;;;;;;;2211905;59;34140;-70
2021/12/20 05:05:31;;;;;;;;;;;;;;;;;;2212882;59;14766;-70
2021/12/20 05:08:06;;;;;;;;;;;;;;;;;;2213245;66;27521;-71
2021/12/20 05:10:40;;;;;;;;;;;;;;;;;;2212786;63;18375;-70
2021/12/20 05:13:17;;;;;;;;;;;;;;;;;;2213476;59;21656;-70
2021/12/20 05:15:50;;;;;;;;;;;;;;;;;;2213704;59;34219;-70
2021/12/20 05:18:23;;;;;;;;;;;;;;;;;;2212871;59;13573;-70
2021/12/20 05:20:57;;;;;;;;;;;;;;;;;;2210551;59;17940;-70
2021/12/20 05:23:30;;;;;;;;;;;;;;;;;;2213817;59;16110;-71
2021/12/20 05:26:03;;;;;;;;;;;;;;;;;;2213491;59;38467;-70
2021/12/20 05:28:39;;;;;;;;;;;;;;;;;;2213611;59;29408;-69
2021/12/20 05:31:12;;;;;;;;;;;;;;;;;;2211959;59;20161;-70
2021/12/20 05:33:45;;;;;;;;;;;;;;;;;;2214142;66;17956;-70
2021/12/20 05:36:18;;;;;;;;;;;;;;;;;;2213255;59;28553;-70
2021/12/20 05:38:51;;;;;;;;;;;;;;;;;;2212733;59;19711;-70
2021/12/20 05:41:25;;;;;;;;;;;;;;;;;;2213494;64;19326;-70
2021/12/20 05:44:00;;;;;;;;;;;;;;;;;;2213099;63;21632;-70
2021/12/20 05:46:34;;;;;;;;;;;;;;;;;;2213623;59;32261;-70
2021/12/20 05:49:07;;;;;;;;;;;;;;;;;;2212079;63;23120;-70
2021/12/20 05:51:41;;;;;;;;;;;;;;;;;;2211075;58;23332;-70
2021/12/20 05:54:14;;;;;;;;;;;;;;;;;;2213000;63;26558;-70
2021/12/20 05:56:47;;;;;;;;;;;;;;;;;;2212757;66;15060;-70
2021/12/20 05:59:23;;;;;;;;;;;;;;;;;;2212176;59;36971;-70
2021/12/20 06:01:56;;;;;;;;;;;;;;;;;;2213831;59;23213;-70
2021/12/20 06:04:29;;;;;;;;;;;;;;;;;;2211367;67;30250;-70
2021/12/20 06:07:02;;;;;;;;;;;;;;;;;;2213823;59;21436;-70
2021/12/20 06:09:35;;;;;;;;;;;;;;;;;;2213511;63;19912;-70
2021/12/20 06:12:09;;;;;;;;;;;;;;;;;;2214587;59;23288;-70
2021/12/20 06:14:45;;;;;;;;;;;;;;;;;;2212693;59;69809;-70
2021/12/20 06:17:19;;;;;;;;;;;;;;;;;;2216374;63;55970;-70
2021/12/20 06:19:52;;;;;;;;;;;;;;;;;;2212705;59;25880;-70
2021/12/20 06:22:26;;;;;;;;;;;;;;;;;;2213734;63;25175;-70
2021/12/20 06:24:59;;;;;;;;;;;;;;;;;;2212096;59;26862;-70
2021/12/20 06:27:32;;;;;;;;;;;;;;;;;;2213640;59;26467;-70
2021/12/20 06:30:10;;;;;;;;;;;;;;;;;;2213395;59;21681;-70
2021/12/20 06:32:44;;;;;;;;;;;;;;;;;;2212965;59;28344;-70
2021/12/20 06:35:17;;;;;;;;;;;;;;;;;;2213318;64;25106;-70
2021/12/20 06:37:59;;;;;;;;;;;;;;;;;;2212812;59;21391;-70
2021/12/20 06:40:33;;;;;;;;;;;;;;;;;;2212943;58;15631;-70
2021/12/20 06:43:07;;;;;;;;;;;;;;;;;;2213465;63;16940;-70
2021/12/20 06:45:43;;;;;;;;;;;;;;;;;;2213691;59;14452;-70
2021/12/20 06:48:16;;;;;;;;;;;;;;;;;;2212944;59;20900;-70
2021/12/20 06:50:49;;;;;;;;;;;;;;;;;;2211217;67;35238;-70
2021/12/20 06:53:22;;;;;;;;;;;;;;;;;;2213832;67;14583;-70
2021/12/20 06:55:56;;;;;;;;;;;;;;;;;;2213082;59;18955;-70
2021/12/20 06:58:29;;;;;;;;;;;;;;;;;;2213486;59;14328;-70
2021/12/20 07:01:05;;;;;;;;;;;;;;;;;;2213176;63;22341;-70
2021/12/20 07:03:38;;;;;;;;;;;;;;;;;;2212219;67;13259;-70
2021/12/20 07:06:11;;;;;;;;;;;;;;;;;;2211966;59;15341;-70
2021/12/20 07:08:44;;;;;;;;;;;;;;;;;;2212055;59;37841;-70
2021/12/20 07:11:18;;;;;;;;;;;;;;;;;;2213732;66;15936;-70
2021/12/20 07:13:53;;;;;;;;;;;;;;;;;;2212984;59;16166;-70
2021/12/20 07:16:32;;;;;;;;;;;;;;;;;;2213661;67;17832;-70
2021/12/20 07:19:06;;;;;;;;;;;;;;;;;;2211295;63;31275;-70
2021/12/20 07:21:39;;;;;;;;;;;;;;;;;;2212479;67;20447;-70
2021/12/20 07:24:12;;;;;;;;;;;;;;;;;;2212817;59;29198;-70
2021/12/20 07:26:46;;;;;;;;;;;;;;;;;;2211481;59;46311;-69
2021/12/20 07:29:19;;;;;;;;;;;;;;;;;;2212467;58;16955;-70
2021/12/20 07:31:55;;;;;;;;;;;;;;;;;;2213080;63;24514;-70
2021/12/20 07:34:28;;;;;;;;;;;;;;;;;;2212841;67;24700;-70
2021/12/20 07:37:01;;;;;;;;;;;;;;;;;;2212438;59;19659;-70
2021/12/20 07:39:34;;;;;;;;;;;;;;;;;;2212935;59;37344;-70
2021/12/20 07:42:09;;;;;;;;;;;;;;;;;;2212963;64;19491;-70
2021/12/20 07:44:42;;;;;;;;;;;;;;;;;;2211788;63;27284;-70
2021/12/20 07:47:18;;;;;;;;;;;;;;;;;;2213405;59;19081;-70
2021/12/20 07:49:51;;;;;;;;;;;;;;;;;;2212536;59;36757;-70
2021/12/20 07:52:24;;;;;;;;;;;;;;;;;;2214356;59;22237;-70
2021/12/20 07:54:57;;;;;;;;;;;;;;;;;;2212303;59;23873;-70
2021/12/20 07:57:30;;;;;;;;;;;;;;;;;;2212474;59;17509;-70
2021/12/20 08:00:04;;;;;;;;;;;;;;;;;;2214048;59;20485;-70
2021/12/20 08:02:40;;;;;;;;;;;;;;;;;;2214117;59;15367;-70
2021/12/20 08:05:14;;;;;;;;;;;;;;;;;;2212146;59;13067;-70
2021/12/20 08:07:50;;;;;;;;;;;;;;;;;;2214169;59;15803;-70
2021/12/20 08:10:24;;;;;;;;;;;;;;;;;;2213023;59;21996;-70
2021/12/20 08:12:57;;;;;;;;;;;;;;;;;;2212477;58;30894;-70
2021/12/20 08:15:30;;;;;;;;;;;;;;;;;;2200778;54;17315;-73
2021/12/20 08:18:06;;;;;;;;;;;;;;;;;;2194697;59;19983;-73
2021/12/20 08:20:40;;;;;;;;;;;;;;;;;;2193901;59;19248;-73
2021/12/20 08:23:13;;;;;;;;;;;;;;;;;;2195355;59;15609;-73
2021/12/20 08:25:46;;;;;;;;;;;;;;;;;;2193134;67;22624;-73
2021/12/20 08:28:19;;;;;;;;;;;;;;;;;;2194765;67;24534;-73
2021/12/20 08:30:52;;;;;;;;;;;;;;;;;;2194004;59;18494;-73
2021/12/20 08:33:28;;;;;;;;;;;;;;;;;;2195019;64;19883;-73
2021/12/20 08:36:01;;;;;;;;;;;;;;;;;;2193165;59;18753;-73
2021/12/20 08:38:34;;;;;;;;;;;;;;;;;;2193269;59;15836;-73
2021/12/20 08:41:08;;;;;;;;;;;;;;;;;;2193064;59;16283;-74
2021/12/20 08:43:41;;;;;;;;;;;;;;;;;;2193094;59;19422;-73
2021/12/20 08:46:15;;;;;;;;;;;;;;;;;;2193431;64;20159;-73
2021/12/20 08:48:52;;;;;;;;;;;;;;;;;;2192340;59;18073;-73
2021/12/20 08:51:25;;;;;;;;;;;;;;;;;;2195248;59;18472;-73
2021/12/20 08:53:58;;;;;;;;;;;;;;;;;;2192890;59;16465;-73
2021/12/20 08:56:31;;;;;;;;;;;;;;;;;;2193421;59;15286;-73
2021/12/20 08:59:04;;;;;;;;;;;;;;;;;;2192861;59;26863;-73
2021/12/20 09:01:38;;;;;;;;;;;;;;;;;;2194909;59;17541;-73
2021/12/20 09:04:15;;;;;;;;;;;;;;;;;;2192146;67;23841;-73
2021/12/20 09:06:49;;;;;;;;;;;;;;;;;;2192315;59;15495;-73
2021/12/20 09:09:22;;;;;;;;;;;;;;;;;;2192799;59;19711;-72
2021/12/20 09:11:55;;;;;;;;;;;;;;;;;;2193045;59;15021;-73
2021/12/20 09:14:29;;;;;;;;;;;;;;;;;;2194418;59;18752;-73
2021/12/20 09:17:02;;;;;;;;;;;;;;;;;;2193042;59;21834;-73
2021/12/20 09:19:39;;;;;;;;;;;;;;;;;;2194654;64;23124;-73
2021/12/20 09:22:13;;;;;;;;;;;;;;;;;;2193940;64;24099;-73
2021/12/20 09:24:46;;;;;;;;;;;;;;;;;;2193077;63;23662;-73
2021/12/20 09:27:19;;;;;;;;;;;;;;;;;;2196500;67;19743;-73
2021/12/20 09:29:53;;;;;;;;;;;;;;;;;;2194327;59;14045;-72
2021/12/20 09:32:26;;;;;;;;;;;;;;;;;;2194102;64;29796;-73
2021/12/20 09:35:02;;;;;;;;;;;;;;;;;;2192315;59;18497;-72
2021/12/20 09:37:36;;;;;;;;;;;;;;;;;;2195331;59;19213;-73
2021/12/20 09:40:13;;;;;;;;;;;;;;;;;;2193880;59;15958;-73
2021/12/20 09:42:50;;;;;;;;;;;;;;;;;;2193377;59;28113;-72
2021/12/20 09:45:24;;;;;;;;;;;;;;;;;;2195690;65;15148;-73
2021/12/20 09:47:57;;;;;;;;;;;;;;;;;;2192735;67;24008;-70
2021/12/20 09:50:33;;;;;;;;;;;;;;;;;;2194391;59;33239;-70
2021/12/20 09:53:07;;;;;;;;;;;;;;;;;;2192899;63;19358;-71
2021/12/20 09:55:41;;;;;;;;;;;;;;;;;;2196465;59;17317;-70
2021/12/20 09:58:14;;;;;;;;;;;;;;;;;;2197515;59;17834;-70
2021/12/20 10:00:49;;;;;;;;;;;;;;;;;;2193656;64;27687;-70
2021/12/20 10:03:23;;;;;;;;;;;;;;;;;;2193379;67;42704;-70
2021/12/20 10:05:59;;;;;;;;;;;;;;;;;;2192853;59;28736;-71
2021/12/20 10:08:37;;;;;;;;;;;;;;;;;;2193617;59;26083;-70
2021/12/20 10:11:21;;;;;;;;;;;;;;;;;;2192363;59;28408;-71
2021/12/20 10:14:05;;;;;;;;;;;;;;;;;;2195587;59;21215;-71
2021/12/20 10:16:38;;;;;;;;;;;;;;;;;;2193112;59;22344;-71
2021/12/20 10:19:27;;;;;;;;;;;;;;;;;;2193098;59;33787;-71
2021/12/20 10:22:22;;;;;;;;;;;;;;;;;;2193327;67;17408;-71
2021/12/20 10:24:56;;;;;;;;;;;;;;;;;;2193094;59;20828;-71
2021/12/20 10:27:29;;;;;;;;;;;;;;;;;;2193797;59;22060;-70
2021/12/20 10:30:21;;;;;;;;;;;;;;;;;;2193650;59;18668;-71
2021/12/20 10:32:54;;;;;;;;;;;;;;;;;;2192440;59;18845;-70
2021/12/20 10:35:35;;;;;;;;;;;;;;;;;;2191979;67;25216;-70
2021/12/20 10:38:24;;;;;;;;;;;;;;;;;;2195047;59;28227;-71
2021/12/20 10:41:00;;;;;;;;;;;;;;;;;;2193933;59;14223;-71
2021/12/20 10:43:36;;;;;;;;;;;;;;;;;;2192850;59;15723;-70
2021/12/20 10:46:14;;;;;;;;;;;;;;;;;;2194520;67;13047;-71
2021/12/20 10:48:48;;;;;;;;;;;;;;;;;;2194107;59;18027;-70
2021/12/20 10:51:23;;;;;;;;;;;;;;;;;;2192468;59;24018;-71
2021/12/20 10:54:02;;;;;;;;;;;;;;;;;;2193136;59;28029;-70
2021/12/20 10:56:36;;;;;;;;;;;;;;;;;;2192674;59;15212;-70
2021/12/20 10:59:11;;;;;;;;;;;;;;;;;;2192868;59;16233;-72
2021/12/20 11:02:29;;;;;;;;;;;;;;;;;;2194924;59;15011;-71
2021/12/20 11:04:56;;;;;;;;;;;;;;;;;;2192916;67;14382;-71
2021/12/20 11:10:26;;;;;;;;;;;;;;;;;;2193363;59;30808;-70
2021/12/20 11:12:59;;;;;;;;;;;;;;;;;;2194233;59;25472;-71
2021/12/20 11:15:32;;;;;;;;;;;;;;;;;;2193993;59;17989;-71
2021/12/20 11:18:16;;;;;;;;;;;;;;;;;;2195269;63;15803;-71
2021/12/20 11:20:50;;;;;;;;;;;;;;;;;;2193463;59;23097;-71
2021/12/20 11:23:28;;;;;;;;;;;;;;;;;;2193931;59;26749;-71
2021/12/20 11:26:03;;;;;;;;;;;;;;;;;;2193546;59;27889;-71
2021/12/20 11:28:37;;;;;;;;;;;;;;;;;;2193471;59;18125;-71
2021/12/20 11:31:10;;;;;;;;;;;;;;;;;;2192188;59;15683;-71
2021/12/20 11:33:43;;;;;;;;;;;;;;;;;;2193523;59;19712;-71
2021/12/20 11:36:16;;;;;;;;;;;;;;;;;;2194560;59;20423;-71
2021/12/20 11:38:49;;;;;;;;;;;;;;;;;;2189226;59;21787;-71
2021/12/20 11:41:25;;;;;;;;;;;;;;;;;;2194713;59;16782;-71
2021/12/20 11:44:00;;;;;;;;;;;;;;;;;;2194871;67;15892;-71
2021/12/20 11:46:37;;;;;;;;;;;;;;;;;;2195234;59;17214;-71
2021/12/20 11:49:10;;;;;;;;;;;;;;;;;;2192381;59;17598;-71
2021/12/20 11:52:00;;;;;;;;;;;;;;;;;;2193208;59;20011;-71
2021/12/20 11:54:51;;;;;;;;;;;;;;;;;;2191964;59;18260;-70
2021/12/20 11:57:39;;;;;;;;;;;;;;;;;;2191558;59;16427;-71
2021/12/20 12:00:21;;;;;;;;;;;;;;;;;;2193948;59;14334;-71
2021/12/20 12:02:56;;;;;;;;;;;;;;;;;;2194275;59;16812;-73
2021/12/20 12:05:34;;;;;;;;;;;;;;;;;;2193614;59;27651;-74
2021/12/20 12:08:23;;;;;;;;;;;;;;;;;;2193266;59;15676;-73
2021/12/20 12:10:58;;;;;;;;;;;;;;;;;;2191844;59;22852;-74
2021/12/20 12:13:35;;;;;;;;;;;;;;;;;;2194521;59;13281;-74
2021/12/20 12:16:26;;;;;;;;;;;;;;;;;;2192785;59;20985;-74
2021/12/20 12:19:01;;;;;;;;;;;;;;;;;;2194785;59;15542;-73
2021/12/20 12:21:43;;;;;;;;;;;;;;;;;;2195255;59;20008;-73
2021/12/20 12:24:17;;;;;;;;;;;;;;;;;;2197395;59;15235;-73
2021/12/20 12:26:51;;;;;;;;;;;;;;;;;;2191811;64;17188;-73
2021/12/20 12:29:25;;;;;;;;;;;;;;;;;;2196600;67;21958;-73
2021/12/20 12:32:01;;;;;;;;;;;;;;;;;;2195022;59;14619;-74
2021/12/20 12:34:42;;;;;;;;;;;;;;;;;;2195529;59;20211;-74
2021/12/20 12:37:19;;;;;;;;;;;;;;;;;;2193673;59;25210;-71
2021/12/20 12:39:52;;;;;;;;;;;;;;;;;;2193352;59;15507;-71
2021/12/20 12:42:40;;;;;;;;;;;;;;;;;;2193305;67;14274;-71
2021/12/20 12:45:16;;;;;;;;;;;;;;;;;;2191827;59;27095;-71
2021/12/20 12:47:52;;;;;;;;;;;;;;;;;;2193630;60;14843;-73
2021/12/20 12:50:27;;;;;;;;;;;;;;;;;;2193541;67;32434;-73
2021/12/20 12:53:01;;;;;;;;;;;;;;;;;;2193730;59;18714;-73
2021/12/20 12:55:34;;;;;;;;;;;;;;;;;;2196091;67;18107;-74
2021/12/20 12:58:28;;;;;;;;;;;;;;;;;;2195641;59;19339;-73
2021/12/20 13:01:02;;;;;;;;;;;;;;;;;;2192186;59;23246;-71
2021/12/20 13:03:38;;;;;;;;;;;;;;;;;;2196216;64;12658;-71
2021/12/20 13:06:20;;;;;;;;;;;;;;;;;;2193533;59;21460;-71
2021/12/20 13:08:54;;;;;;;;;;;;;;;;;;2192593;59;27133;-71
2021/12/20 13:11:29;;;;;;;;;;;;;;;;;;2193556;59;17821;-71
2021/12/20 13:14:08;;;;;;;;;;;;;;;;;;2194694;59;22588;-71
2021/12/20 13:16:53;;;;;;;;;;;;;;;;;;2193429;59;23454;-71
2021/12/20 13:19:34;;;;;;;;;;;;;;;;;;2196556;67;27436;-71
2021/12/20 13:22:07;;;;;;;;;;;;;;;;;;2193907;59;36506;-71
2021/12/20 13:24:41;;;;;;;;;;;;;;;;;;2194476;59;14070;-71
2021/12/20 13:27:14;;;;;;;;;;;;;;;;;;2193701;67;17215;-71
2021/12/20 13:29:50;;;;;;;;;;;;;;;;;;2193838;59;14786;-71
2021/12/20 13:32:24;;;;;;;;;;;;;;;;;;2196035;67;22670;-71
2021/12/20 13:35:03;;;;;;;;;;;;;;;;;;2192748;67;15143;-71
2021/12/20 13:37:39;;;;;;;;;;;;;;;;;;2194897;59;23562;-71
2021/12/20 13:40:12;;;;;;;;;;;;;;;;;;2194643;59;12960;-71
2021/12/20 13:42:53;;;;;;;;;;;;;;;;;;2193466;67;21356;-71
2021/12/20 13:45:26;;;;;;;;;;;;;;;;;;2193303;59;15526;-71
2021/12/20 13:48:00;;;;;;;;;;;;;;;;;;2194184;67;18978;-71
2021/12/20 13:50:35;;;;;;;;;;;;;;;;;;2193262;59;20710;-71
2021/12/20 13:53:09;;;;;;;;;;;;;;;;;;2192668;59;17158;-71
2021/12/20 13:55:42;;;;;;;;;;;;;;;;;;2193213;59;16877;-71
2021/12/20 13:58:15;;;;;;;;;;;;;;;;;;2194983;67;17918;-71
2021/12/20 14:00:48;;;;;;;;;;;;;;;;;;2192625;67;21196;-71
2021/12/20 14:03:21;;;;;;;;;;;;;;;;;;2194366;59;16375;-71
2021/12/20 14:05:58;;;;;;;;;;;;;;;;;;2194705;59;17226;-71
2021/12/20 14:08:31;;;;;;;;;;;;;;;;;;2193672;59;24835;-71
2021/12/20 14:11:04;;;;;;;;;;;;;;;;;;2191851;59;16078;-71
2021/12/20 14:13:38;;;;;;;;;;;;;;;;;;2194340;59;16727;-72
2021/12/20 14:16:12;;;;;;;;;;;;;;;;;;2195156;54;17179;-71
2021/12/20 14:18:48;;;;;;;;;;;;;;;;;;2195538;59;18556;-70
2021/12/20 14:21:26;;;;;;;;;;;;;;;;;;2195489;64;17062;-70
2021/12/20 14:23:59;;;;;;;;;;;;;;;;;;2195706;59;26384;-70
2021/12/20 14:26:37;;;;;;;;;;;;;;;;;;2203848;67;17975;-70
2021/12/20 14:29:12;;;;;;;;;;;;;;;;;;2197579;59;18650;-70
2021/12/20 14:31:50;;;;;;;;;;;;;;;;;;2198760;59;23901;-71
2021/12/20 14:34:33;;;;;;;;;;;;;;;;;;2196113;59;16231;-71
2021/12/20 14:37:13;;;;;;;;;;;;;;;;;;2197690;59;15726;-71
2021/12/20 14:39:47;;;;;;;;;;;;;;;;;;2197667;63;33611;-70
2021/12/20 14:42:21;;;;;;;;;;;;;;;;;;2200900;67;17977;-70
2021/12/20 14:44:59;;;;;;;;;;;;;;;;;;2196417;59;18271;-70
2021/12/20 14:47:38;;;;;;;;;;;;;;;;;;2197500;59;20144;-70
2021/12/20 14:50:25;;;;;;;;;;;;;;;;;;2198488;59;22624;-70
2021/12/20 14:53:14;;;;;;;;;;;;;;;;;;2201889;59;18297;-70
2021/12/20 14:55:47;;;;;;;;;;;;;;;;;;2200285;59;12779;-71
2021/12/20 14:58:22;;;;;;;;;;;;;;;;;;2199037;59;22145;-70
2021/12/20 15:00:55;;;;;;;;;;;;;;;;;;2200351;59;18174;-70
2021/12/20 15:03:28;;;;;;;;;;;;;;;;;;2198517;59;22474;-70
2021/12/20 15:06:02;;;;;;;;;;;;;;;;;;2200959;59;12849;-70
2021/12/20 15:08:37;;;;;;;;;;;;;;;;;;2200624;67;16111;-70
2021/12/20 15:11:11;;;;;;;;;;;;;;;;;;2196554;59;24327;-70
2021/12/20 15:13:44;;;;;;;;;;;;;;;;;;2200522;59;13900;-70
2021/12/20 15:16:17;;;;;;;;;;;;;;;;;;2199852;59;16297;-70
2021/12/20 15:18:50;;;;;;;;;;;;;;;;;;2199019;64;20998;-70
2021/12/20 15:21:23;;;;;;;;;;;;;;;;;;2199031;59;19720;-70
2021/12/20 15:24:00;;;;;;;;;;;;;;;;;;2202517;59;14661;-70
2021/12/20 15:26:33;;;;;;;;;;;;;;;;;;2196844;59;15745;-70
2021/12/20 15:29:07;;;;;;;;;;;;;;;;;;2196301;59;22807;-70
2021/12/20 15:31:42;;;;;;;;;;;;;;;;;;2200754;59;17917;-70
2021/12/20 15:34:16;;;;;;;;;;;;;;;;;;2197596;59;27476;-70
2021/12/20 15:36:49;;;;;;;;;;;;;;;;;;2196494;59;25834;-70
2021/12/20 15:39:25;;;;;;;;;;;;;;;;;;2197313;59;21750;-70
2021/12/20 15:42:00;;;;;;;;;;;;;;;;;;2201038;63;20886;-70
2021/12/20 15:44:33;;;;;;;;;;;;;;;;;;2198539;59;19996;-70
2021/12/20 15:47:07;;;;;;;;;;;;;;;;;;2197064;59;18072;-70
2021/12/20 15:49:40;;;;;;;;;;;;;;;;;;2198778;59;22039;-70
2021/12/20 15:52:13;;;;;;;;;;;;;;;;;;2197887;59;28350;-70
2021/12/20 15:54:49;;;;;;;;;;;;;;;;;;2198339;59;15746;-70
2021/12/20 15:57:23;;;;;;;;;;;;;;;;;;2198880;59;37652;-70
2021/12/20 15:59:56;;;;;;;;;;;;;;;;;;2198307;67;20460;-70
2021/12/20 16:02:29;;;;;;;;;;;;;;;;;;2205712;64;32492;-70
2021/12/20 16:05:02;;;;;;;;;;;;;;;;;;2198957;59;22713;-70
2021/12/20 16:07:36;;;;;;;;;;;;;;;;;;2203293;59;17508;-70
2021/12/20 16:10:12;;;;;;;;;;;;;;;;;;2203101;59;21191;-70
2021/12/20 16:12:46;;;;;;;;;;;;;;;;;;2197582;59;18407;-71
2021/12/20 16:15:20;;;;;;;;;;;;;;;;;;2196870;59;27103;-70
2021/12/20 16:17:54;;;;;;;;;;;;;;;;;;2202396;67;14768;-70
2021/12/20 16:20:27;;;;;;;;;;;;;;;;;;2198877;67;19377;-70
2021/12/20 16:23:01;;;;;;;;;;;;;;;;;;2202058;59;21341;-70
2021/12/20 16:25:39;;;;;;;;;;;;;;;;;;2199293;59;33960;-70
2021/12/20 16:28:13;;;;;;;;;;;;;;;;;;2201005;59;18167;-70
2021/12/20 16:30:47;;;;;;;;;;;;;;;;;;2197359;59;27192;-70
2021/12/20 16:33:20;;;;;;;;;;;;;;;;;;2198840;67;18986;-70
2021/12/20 16:35:54;;;;;;;;;;;;;;;;;;2200909;59;28176;-70
2021/12/20 16:38:27;;;;;;;;;;;;;;;;;;2200545;59;35506;-70
2021/12/20 16:41:04;;;;;;;;;;;;;;;;;;2196657;59;86423;-70
2021/12/20 16:43:38;;;;;;;;;;;;;;;;;;2197316;59;18144;-70
2021/12/20 16:46:12;;;;;;;;;;;;;;;;;;2197407;59;16338;-70
2021/12/20 16:48:47;;;;;;;;;;;;;;;;;;2196727;59;41930;-70
2021/12/20 16:51:20;;;;;;;;;;;;;;;;;;2199546;59;16218;-70
2021/12/20 16:53:53;;;;;;;;;;;;;;;;;;2197878;67;18101;-70
2021/12/20 16:56:29;;;;;;;;;;;;;;;;;;2197654;59;19354;-70
2021/12/20 16:59:02;;;;;;;;;;;;;;;;;;2196906;59;25740;-71
2021/12/20 17:01:36;;;;;;;;;;;;;;;;;;2198192;59;27275;-70
2021/12/20 17:06:58;;;;;;;;;;;;;;;;;;2199255;64;16061;-70
2021/12/20 17:09:31;;;;;;;;;;;;;;;;;;2198131;67;25371;-70
2021/12/20 17:12:09;;;;;;;;;;;;;;;;;;2196520;59;18831;-70
2021/12/20 17:14:43;;;;;;;;;;;;;;;;;;2199780;59;21761;-70
2021/12/20 17:17:16;;;;;;;;;;;;;;;;;;2195719;59;20601;-70
2021/12/20 17:19:49;;;;;;;;;;;;;;;;;;2198123;67;28405;-70
2021/12/20 17:22:22;;;;;;;;;;;;;;;;;;2198031;59;31868;-70
2021/12/20 17:24:55;;;;;;;;;;;;;;;;;;2200128;59;18036;-70
2021/12/20 17:27:31;;;;;;;;;;;;;;;;;;2198005;59;45680;-69
2021/12/20 17:30:05;;;;;;;;;;;;;;;;;;2197150;59;20292;-70
2021/12/20 17:32:38;;;;;;;;;;;;;;;;;;2196631;63;19900;-70
2021/12/20 17:35:12;;;;;;;;;;;;;;;;;;2207008;59;39654;-70
2021/12/20 17:37:45;;;;;;;;;;;;;;;;;;2203197;59;17179;-70
2021/12/20 17:40:19;;;;;;;;;;;;;;;;;;2200252;67;19015;-70
2021/12/20 17:42:55;;;;;;;;;;;;;;;;;;2194755;59;32743;-70
2021/12/20 17:45:28;;;;;;;;;;;;;;;;;;2196480;59;18126;-70
2021/12/20 17:48:02;;;;;;;;;;;;;;;;;;2198195;59;17527;-70
2021/12/20 17:50:35;;;;;;;;;;;;;;;;;;2197035;59;19270;-70
2021/12/20 17:53:08;;;;;;;;;;;;;;;;;;2198712;59;29464;-70